sensor_id;sensor_type;location;lat;lon;timestamp;P1;durP1;ratioP1;P2;durP2;ratioP2
37267;SDS011;23154;52.542;13.362;2023-07-09T00:02:23;17.42;;;12.65;;
37267;SDS011;23154;52.542;13.362;2023-07-09T00:04:49;19.73;;;13.13;;
37267;SDS011;23154;52.542;13.362;2023-07-09T00:07:24;21.42;;;14.45;;
37267;SDS011;23154;52.542;13.362;2023-07-09T00:09:53;21.10;;;12.88;;
37267;SDS011;23154;52.542;13.362;2023-07-09T00:12:19;19.27;;;13.07;;
37267;SDS011;23154;52.542;13.362;2023-07-09T00:14:46;18.35;;;13.07;;
37267;SDS011;23154;52.542;13.362;2023-07-09T00:17:23;23.30;;;14.30;;
37267;SDS011;23154;52.542;13.362;2023-07-09T00:19:51;18.45;;;12.90;;
37267;SDS011;23154;52.542;13.362;2023-07-09T00:22:17;19.70;;;13.35;;
37267;SDS011;23154;52.542;13.362;2023-07-09T00:24:44;24.13;;;13.15;;
37267;SDS011;23154;52.542;13.362;2023-07-09T00:27:11;17.77;;;12.55;;
37267;SDS011;23154;52.542;13.362;2023-07-09T00:29:38;19.30;;;12.77;;
37267;SDS011;23154;52.542;13.362;2023-07-09T00:32:08;17.98;;;12.88;;
37267;SDS011;23154;52.542;13.362;2023-07-09T00:34:36;16.27;;;11.90;;
37267;SDS011;23154;52.542;13.362;2023-07-09T00:37:04;17.77;;;11.70;;
37267;SDS011;23154;52.542;13.362;2023-07-09T00:39:30;20.60;;;13.32;;
37267;SDS011;23154;52.542;13.362;2023-07-09T00:41:56;17.95;;;12.60;;
37267;SDS011;23154;52.542;13.362;2023-07-09T00:51:59;17.35;;;13.57;;
37267;SDS011;23154;52.542;13.362;2023-07-09T00:54:28;19.65;;;12.23;;
37267;SDS011;23154;52.542;13.362;2023-07-09T00:57:03;17.55;;;12.70;;
37267;SDS011;23154;52.542;13.362;2023-07-09T00:59:31;17.83;;;11.80;;
37267;SDS011;23154;52.542;13.362;2023-07-09T01:01:58;18.02;;;12.65;;
37267;SDS011;23154;52.542;13.362;2023-07-09T01:04:25;18.05;;;12.63;;
37267;SDS011;23154;52.542;13.362;2023-07-09T01:06:52;18.20;;;13.32;;
37267;SDS011;23154;52.542;13.362;2023-07-09T01:09:20;18.40;;;13.38;;
37267;SDS011;23154;52.542;13.362;2023-07-09T01:11:46;17.15;;;12.65;;
37267;SDS011;23154;52.542;13.362;2023-07-09T01:14:14;17.42;;;13.07;;
37267;SDS011;23154;52.542;13.362;2023-07-09T01:16:46;18.77;;;13.30;;
37267;SDS011;23154;52.542;13.362;2023-07-09T01:19:14;17.38;;;13.48;;
37267;SDS011;23154;52.542;13.362;2023-07-09T01:21:41;17.83;;;13.20;;
37267;SDS011;23154;52.542;13.362;2023-07-09T01:24:15;18.38;;;13.70;;
37267;SDS011;23154;52.542;13.362;2023-07-09T01:26:44;20.33;;;13.15;;
37267;SDS011;23154;52.542;13.362;2023-07-09T01:29:11;13.40;;;3.55;;
37267;SDS011;23154;52.542;13.362;2023-07-09T01:31:37;14.68;;;3.40;;
37267;SDS011;23154;52.542;13.362;2023-07-09T01:34:03;15.15;;;3.53;;
37267;SDS011;23154;52.542;13.362;2023-07-09T01:36:30;14.00;;;3.65;;
37267;SDS011;23154;52.542;13.362;2023-07-09T01:38:56;9.77;;;3.38;;
37267;SDS011;23154;52.542;13.362;2023-07-09T01:41:22;12.43;;;3.25;;
37267;SDS011;23154;52.542;13.362;2023-07-09T01:43:48;11.77;;;3.78;;
37267;SDS011;23154;52.542;13.362;2023-07-09T01:46:14;10.32;;;3.25;;
37267;SDS011;23154;52.542;13.362;2023-07-09T01:48:42;14.30;;;3.67;;
37267;SDS011;23154;52.542;13.362;2023-07-09T01:51:10;14.65;;;3.28;;
37267;SDS011;23154;52.542;13.362;2023-07-09T01:53:37;14.13;;;3.50;;
37267;SDS011;23154;52.542;13.362;2023-07-09T01:56:03;15.60;;;3.40;;
37267;SDS011;23154;52.542;13.362;2023-07-09T01:58:32;9.52;;;2.67;;
37267;SDS011;23154;52.542;13.362;2023-07-09T02:00:59;9.88;;;3.17;;
37267;SDS011;23154;52.542;13.362;2023-07-09T02:03:26;10.57;;;2.83;;
37267;SDS011;23154;52.542;13.362;2023-07-09T02:05:54;9.60;;;2.95;;
37267;SDS011;23154;52.542;13.362;2023-07-09T02:08:22;9.43;;;3.10;;
37267;SDS011;23154;52.542;13.362;2023-07-09T02:10:49;11.55;;;3.38;;
37267;SDS011;23154;52.542;13.362;2023-07-09T02:13:16;13.25;;;3.75;;
37267;SDS011;23154;52.542;13.362;2023-07-09T02:15:43;11.45;;;3.03;;
37267;SDS011;23154;52.542;13.362;2023-07-09T02:18:10;13.23;;;3.08;;
37267;SDS011;23154;52.542;13.362;2023-07-09T02:20:36;13.00;;;3.35;;
37267;SDS011;23154;52.542;13.362;2023-07-09T02:23:02;12.32;;;3.50;;
37267;SDS011;23154;52.542;13.362;2023-07-09T02:25:28;13.18;;;3.25;;
37267;SDS011;23154;52.542;13.362;2023-07-09T02:27:54;14.98;;;3.38;;
37267;SDS011;23154;52.542;13.362;2023-07-09T02:30:20;11.43;;;3.05;;
37267;SDS011;23154;52.542;13.362;2023-07-09T02:32:46;13.32;;;3.20;;
37267;SDS011;23154;52.542;13.362;2023-07-09T02:35:12;12.43;;;3.40;;
37267;SDS011;23154;52.542;13.362;2023-07-09T02:37:38;13.02;;;3.30;;
37267;SDS011;23154;52.542;13.362;2023-07-09T02:40:05;9.15;;;3.10;;
37267;SDS011;23154;52.542;13.362;2023-07-09T02:42:31;10.73;;;3.22;;
37267;SDS011;23154;52.542;13.362;2023-07-09T02:44:57;11.65;;;3.42;;
37267;SDS011;23154;52.542;13.362;2023-07-09T02:47:23;11.88;;;2.97;;
37267;SDS011;23154;52.542;13.362;2023-07-09T02:49:49;10.77;;;2.97;;
37267;SDS011;23154;52.542;13.362;2023-07-09T02:52:15;14.70;;;3.78;;
37267;SDS011;23154;52.542;13.362;2023-07-09T02:54:41;11.55;;;3.78;;
37267;SDS011;23154;52.542;13.362;2023-07-09T02:57:08;13.82;;;4.30;;
37267;SDS011;23154;52.542;13.362;2023-07-09T02:59:34;12.45;;;3.95;;
37267;SDS011;23154;52.542;13.362;2023-07-09T03:02:00;13.90;;;4.03;;
37267;SDS011;23154;52.542;13.362;2023-07-09T03:04:26;14.27;;;4.07;;
37267;SDS011;23154;52.542;13.362;2023-07-09T03:06:52;12.48;;;3.90;;
37267;SDS011;23154;52.542;13.362;2023-07-09T03:09:19;12.13;;;3.92;;
37267;SDS011;23154;52.542;13.362;2023-07-09T03:11:45;14.63;;;4.07;;
37267;SDS011;23154;52.542;13.362;2023-07-09T03:14:11;14.23;;;3.90;;
37267;SDS011;23154;52.542;13.362;2023-07-09T03:16:37;14.85;;;3.63;;
37267;SDS011;23154;52.542;13.362;2023-07-09T03:19:03;17.83;;;4.00;;
37267;SDS011;23154;52.542;13.362;2023-07-09T03:21:30;15.23;;;3.88;;
37267;SDS011;23154;52.542;13.362;2023-07-09T03:23:56;12.52;;;3.70;;
37267;SDS011;23154;52.542;13.362;2023-07-09T03:26:23;14.00;;;3.88;;
37267;SDS011;23154;52.542;13.362;2023-07-09T03:28:50;12.30;;;3.63;;
37267;SDS011;23154;52.542;13.362;2023-07-09T03:31:16;12.75;;;3.70;;
37267;SDS011;23154;52.542;13.362;2023-07-09T03:33:42;13.13;;;3.70;;
37267;SDS011;23154;52.542;13.362;2023-07-09T03:36:08;13.40;;;3.30;;
37267;SDS011;23154;52.542;13.362;2023-07-09T03:38:34;13.43;;;4.00;;
37267;SDS011;23154;52.542;13.362;2023-07-09T03:41:00;12.63;;;4.10;;
37267;SDS011;23154;52.542;13.362;2023-07-09T03:43:26;11.25;;;3.70;;
37267;SDS011;23154;52.542;13.362;2023-07-09T03:45:52;12.18;;;3.92;;
37267;SDS011;23154;52.542;13.362;2023-07-09T03:48:18;12.10;;;3.60;;
37267;SDS011;23154;52.542;13.362;2023-07-09T03:50:45;12.68;;;3.90;;
37267;SDS011;23154;52.542;13.362;2023-07-09T03:53:12;12.52;;;3.75;;
37267;SDS011;23154;52.542;13.362;2023-07-09T03:55:38;12.88;;;3.83;;
37267;SDS011;23154;52.542;13.362;2023-07-09T03:58:04;17.10;;;4.03;;
37267;SDS011;23154;52.542;13.362;2023-07-09T04:00:31;11.73;;;3.75;;
37267;SDS011;23154;52.542;13.362;2023-07-09T04:02:57;12.95;;;3.63;;
37267;SDS011;23154;52.542;13.362;2023-07-09T04:05:24;12.48;;;3.53;;
37267;SDS011;23154;52.542;13.362;2023-07-09T04:07:50;12.75;;;3.72;;
37267;SDS011;23154;52.542;13.362;2023-07-09T04:10:16;11.45;;;3.72;;
37267;SDS011;23154;52.542;13.362;2023-07-09T04:12:42;14.60;;;3.90;;
37267;SDS011;23154;52.542;13.362;2023-07-09T04:15:08;13.20;;;3.55;;
37267;SDS011;23154;52.542;13.362;2023-07-09T04:17:35;10.90;;;3.50;;
37267;SDS011;23154;52.542;13.362;2023-07-09T04:20:01;14.90;;;3.97;;
37267;SDS011;23154;52.542;13.362;2023-07-09T04:22:31;16.30;;;3.67;;
37267;SDS011;23154;52.542;13.362;2023-07-09T04:24:57;13.25;;;3.75;;
37267;SDS011;23154;52.542;13.362;2023-07-09T04:27:23;15.43;;;4.05;;
37267;SDS011;23154;52.542;13.362;2023-07-09T04:29:52;12.50;;;3.58;;
37267;SDS011;23154;52.542;13.362;2023-07-09T04:32:18;11.98;;;4.00;;
37267;SDS011;23154;52.542;13.362;2023-07-09T04:34:44;11.45;;;3.63;;
37267;SDS011;23154;52.542;13.362;2023-07-09T04:37:11;17.17;;;4.10;;
37267;SDS011;23154;52.542;13.362;2023-07-09T04:39:37;12.57;;;3.22;;
37267;SDS011;23154;52.542;13.362;2023-07-09T04:42:03;10.23;;;3.60;;
37267;SDS011;23154;52.542;13.362;2023-07-09T04:44:29;12.43;;;4.13;;
37267;SDS011;23154;52.542;13.362;2023-07-09T04:46:55;12.52;;;3.50;;
37267;SDS011;23154;52.542;13.362;2023-07-09T04:49:21;12.68;;;3.60;;
37267;SDS011;23154;52.542;13.362;2023-07-09T04:51:48;12.82;;;4.00;;
37267;SDS011;23154;52.542;13.362;2023-07-09T04:54:14;15.10;;;4.00;;
37267;SDS011;23154;52.542;13.362;2023-07-09T04:56:40;13.82;;;3.63;;
37267;SDS011;23154;52.542;13.362;2023-07-09T04:59:09;11.83;;;4.00;;
37267;SDS011;23154;52.542;13.362;2023-07-09T05:01:35;10.77;;;3.70;;
37267;SDS011;23154;52.542;13.362;2023-07-09T05:04:02;14.70;;;3.30;;
37267;SDS011;23154;52.542;13.362;2023-07-09T05:06:28;12.32;;;3.58;;
37267;SDS011;23154;52.542;13.362;2023-07-09T05:08:54;14.45;;;4.07;;
37267;SDS011;23154;52.542;13.362;2023-07-09T05:11:20;11.65;;;3.60;;
37267;SDS011;23154;52.542;13.362;2023-07-09T05:13:46;12.18;;;3.53;;
37267;SDS011;23154;52.542;13.362;2023-07-09T05:16:12;9.95;;;3.42;;
37267;SDS011;23154;52.542;13.362;2023-07-09T05:18:38;12.60;;;3.72;;
37267;SDS011;23154;52.542;13.362;2023-07-09T05:21:04;11.23;;;3.30;;
37267;SDS011;23154;52.542;13.362;2023-07-09T05:23:30;14.80;;;4.43;;
37267;SDS011;23154;52.542;13.362;2023-07-09T05:26:00;10.13;;;3.30;;
37267;SDS011;23154;52.542;13.362;2023-07-09T05:28:27;12.55;;;3.55;;
37267;SDS011;23154;52.542;13.362;2023-07-09T05:30:53;11.05;;;3.60;;
37267;SDS011;23154;52.542;13.362;2023-07-09T05:33:19;14.15;;;3.70;;
37267;SDS011;23154;52.542;13.362;2023-07-09T05:35:45;14.82;;;3.50;;
37267;SDS011;23154;52.542;13.362;2023-07-09T05:38:12;12.60;;;3.70;;
37267;SDS011;23154;52.542;13.362;2023-07-09T05:40:38;11.35;;;3.65;;
37267;SDS011;23154;52.542;13.362;2023-07-09T05:43:04;11.90;;;3.35;;
37267;SDS011;23154;52.542;13.362;2023-07-09T05:45:30;10.77;;;3.88;;
37267;SDS011;23154;52.542;13.362;2023-07-09T05:47:57;11.20;;;3.35;;
37267;SDS011;23154;52.542;13.362;2023-07-09T05:50:23;11.38;;;3.15;;
37267;SDS011;23154;52.542;13.362;2023-07-09T05:52:49;12.95;;;3.33;;
37267;SDS011;23154;52.542;13.362;2023-07-09T05:55:15;12.95;;;3.38;;
37267;SDS011;23154;52.542;13.362;2023-07-09T05:57:41;10.75;;;3.35;;
37267;SDS011;23154;52.542;13.362;2023-07-09T06:00:07;15.75;;;3.67;;
37267;SDS011;23154;52.542;13.362;2023-07-09T06:02:34;10.98;;;3.40;;
37267;SDS011;23154;52.542;13.362;2023-07-09T06:05:00;9.40;;;3.20;;
37267;SDS011;23154;52.542;13.362;2023-07-09T06:07:26;13.27;;;3.83;;
37267;SDS011;23154;52.542;13.362;2023-07-09T06:09:53;12.95;;;3.72;;
37267;SDS011;23154;52.542;13.362;2023-07-09T06:12:19;10.32;;;3.40;;
37267;SDS011;23154;52.542;13.362;2023-07-09T06:14:45;11.48;;;3.38;;
37267;SDS011;23154;52.542;13.362;2023-07-09T06:17:11;13.48;;;3.65;;
37267;SDS011;23154;52.542;13.362;2023-07-09T06:19:38;11.77;;;3.60;;
37267;SDS011;23154;52.542;13.362;2023-07-09T06:22:04;10.40;;;3.42;;
37267;SDS011;23154;52.542;13.362;2023-07-09T06:24:30;13.30;;;3.58;;
37267;SDS011;23154;52.542;13.362;2023-07-09T06:26:57;16.48;;;3.85;;
37267;SDS011;23154;52.542;13.362;2023-07-09T06:29:24;9.57;;;3.33;;
37267;SDS011;23154;52.542;13.362;2023-07-09T06:31:50;11.82;;;3.72;;
37267;SDS011;23154;52.542;13.362;2023-07-09T06:34:16;11.63;;;3.60;;
37267;SDS011;23154;52.542;13.362;2023-07-09T06:36:42;8.52;;;3.03;;
37267;SDS011;23154;52.542;13.362;2023-07-09T06:39:08;10.10;;;3.50;;
37267;SDS011;23154;52.542;13.362;2023-07-09T06:41:35;11.02;;;3.25;;
37267;SDS011;23154;52.542;13.362;2023-07-09T06:44:05;14.80;;;3.97;;
37267;SDS011;23154;52.542;13.362;2023-07-09T06:46:31;14.88;;;3.72;;
37267;SDS011;23154;52.542;13.362;2023-07-09T06:48:57;10.13;;;3.33;;
37267;SDS011;23154;52.542;13.362;2023-07-09T06:51:23;13.27;;;4.07;;
37267;SDS011;23154;52.542;13.362;2023-07-09T06:53:49;13.57;;;3.30;;
37267;SDS011;23154;52.542;13.362;2023-07-09T06:56:16;10.73;;;3.30;;
37267;SDS011;23154;52.542;13.362;2023-07-09T06:58:43;25.98;;;10.50;;
37267;SDS011;23154;52.542;13.362;2023-07-09T07:01:11;14.43;;;4.43;;
37267;SDS011;23154;52.542;13.362;2023-07-09T07:03:37;12.75;;;3.85;;
37267;SDS011;23154;52.542;13.362;2023-07-09T07:06:03;10.27;;;3.40;;
37267;SDS011;23154;52.542;13.362;2023-07-09T07:08:31;14.35;;;3.30;;
37267;SDS011;23154;52.542;13.362;2023-07-09T07:11:00;10.10;;;3.13;;
37267;SDS011;23154;52.542;13.362;2023-07-09T07:13:37;8.07;;;3.10;;
37267;SDS011;23154;52.542;13.362;2023-07-09T07:16:04;13.20;;;3.47;;
37267;SDS011;23154;52.542;13.362;2023-07-09T07:18:31;17.90;;;6.35;;
37267;SDS011;23154;52.542;13.362;2023-07-09T07:20:57;16.55;;;5.45;;
37267;SDS011;23154;52.542;13.362;2023-07-09T07:23:23;11.73;;;3.78;;
37267;SDS011;23154;52.542;13.362;2023-07-09T07:25:49;14.10;;;3.67;;
37267;SDS011;23154;52.542;13.362;2023-07-09T07:28:15;12.38;;;3.60;;
37267;SDS011;23154;52.542;13.362;2023-07-09T07:30:41;13.30;;;3.75;;
37267;SDS011;23154;52.542;13.362;2023-07-09T07:33:08;13.48;;;3.10;;
37267;SDS011;23154;52.542;13.362;2023-07-09T07:35:34;14.63;;;3.20;;
37267;SDS011;23154;52.542;13.362;2023-07-09T07:38:01;12.43;;;3.63;;
37267;SDS011;23154;52.542;13.362;2023-07-09T07:40:27;9.57;;;3.13;;
37267;SDS011;23154;52.542;13.362;2023-07-09T07:42:53;9.90;;;3.30;;
37267;SDS011;23154;52.542;13.362;2023-07-09T07:45:20;10.13;;;3.45;;
37267;SDS011;23154;52.542;13.362;2023-07-09T07:47:46;12.75;;;3.53;;
37267;SDS011;23154;52.542;13.362;2023-07-09T07:50:12;15.45;;;3.58;;
37267;SDS011;23154;52.542;13.362;2023-07-09T07:52:38;21.85;;;6.53;;
37267;SDS011;23154;52.542;13.362;2023-07-09T07:55:05;14.82;;;3.70;;
37267;SDS011;23154;52.542;13.362;2023-07-09T07:57:31;12.00;;;3.45;;
37267;SDS011;23154;52.542;13.362;2023-07-09T07:59:57;12.75;;;3.72;;
37267;SDS011;23154;52.542;13.362;2023-07-09T08:02:24;12.50;;;3.42;;
37267;SDS011;23154;52.542;13.362;2023-07-09T08:04:50;12.52;;;3.80;;
37267;SDS011;23154;52.542;13.362;2023-07-09T08:07:16;12.70;;;3.90;;
37267;SDS011;23154;52.542;13.362;2023-07-09T08:09:43;11.05;;;3.50;;
37267;SDS011;23154;52.542;13.362;2023-07-09T08:12:09;12.27;;;3.38;;
37267;SDS011;23154;52.542;13.362;2023-07-09T08:14:37;12.50;;;3.90;;
37267;SDS011;23154;52.542;13.362;2023-07-09T08:17:03;9.70;;;3.50;;
37267;SDS011;23154;52.542;13.362;2023-07-09T08:19:30;12.90;;;3.60;;
37267;SDS011;23154;52.542;13.362;2023-07-09T08:21:56;13.43;;;3.65;;
37267;SDS011;23154;52.542;13.362;2023-07-09T08:24:22;12.25;;;3.60;;
37267;SDS011;23154;52.542;13.362;2023-07-09T08:26:48;16.13;;;3.70;;
37267;SDS011;23154;52.542;13.362;2023-07-09T08:29:14;13.75;;;4.00;;
37267;SDS011;23154;52.542;13.362;2023-07-09T08:31:40;13.70;;;3.70;;
37267;SDS011;23154;52.542;13.362;2023-07-09T08:34:07;10.93;;;3.30;;
37267;SDS011;23154;52.542;13.362;2023-07-09T08:36:33;12.00;;;3.67;;
37267;SDS011;23154;52.542;13.362;2023-07-09T08:39:02;10.80;;;3.33;;
37267;SDS011;23154;52.542;13.362;2023-07-09T08:41:39;12.85;;;3.80;;
37267;SDS011;23154;52.542;13.362;2023-07-09T08:47:05;11.32;;;3.50;;
37267;SDS011;23154;52.542;13.362;2023-07-09T08:52:10;13.82;;;3.83;;
37267;SDS011;23154;52.542;13.362;2023-07-09T08:54:38;12.98;;;3.70;;
37267;SDS011;23154;52.542;13.362;2023-07-09T08:57:26;11.57;;;3.65;;
37267;SDS011;23154;52.542;13.362;2023-07-09T08:59:52;11.13;;;3.33;;
37267;SDS011;23154;52.542;13.362;2023-07-09T09:02:26;11.85;;;3.58;;
37267;SDS011;23154;52.542;13.362;2023-07-09T09:04:54;12.88;;;3.40;;
37267;SDS011;23154;52.542;13.362;2023-07-09T09:07:39;12.32;;;3.70;;
37267;SDS011;23154;52.542;13.362;2023-07-09T09:10:19;13.02;;;3.67;;
37267;SDS011;23154;52.542;13.362;2023-07-09T09:13:02;11.38;;;3.50;;
37267;SDS011;23154;52.542;13.362;2023-07-09T09:15:29;9.48;;;3.13;;
37267;SDS011;23154;52.542;13.362;2023-07-09T09:17:57;11.45;;;3.78;;
37267;SDS011;23154;52.542;13.362;2023-07-09T09:20:25;12.50;;;3.50;;
37267;SDS011;23154;52.542;13.362;2023-07-09T09:23:15;13.02;;;3.53;;
37267;SDS011;23154;52.542;13.362;2023-07-09T09:25:42;11.38;;;3.33;;
37267;SDS011;23154;52.542;13.362;2023-07-09T09:28:10;14.52;;;3.50;;
37267;SDS011;23154;52.542;13.362;2023-07-09T09:30:36;10.73;;;3.53;;
37267;SDS011;23154;52.542;13.362;2023-07-09T09:33:05;10.88;;;3.42;;
37267;SDS011;23154;52.542;13.362;2023-07-09T09:37:58;13.77;;;3.50;;
37267;SDS011;23154;52.542;13.362;2023-07-09T09:40:26;11.75;;;3.35;;
37267;SDS011;23154;52.542;13.362;2023-07-09T09:42:53;11.05;;;3.72;;
37267;SDS011;23154;52.542;13.362;2023-07-09T09:45:21;11.27;;;4.00;;
37267;SDS011;23154;52.542;13.362;2023-07-09T09:47:47;11.95;;;4.10;;
37267;SDS011;23154;52.542;13.362;2023-07-09T09:50:15;11.40;;;3.35;;
37267;SDS011;23154;52.542;13.362;2023-07-09T09:52:41;10.98;;;3.25;;
37267;SDS011;23154;52.542;13.362;2023-07-09T09:55:16;11.95;;;3.30;;
37267;SDS011;23154;52.542;13.362;2023-07-09T09:57:47;11.23;;;3.53;;
37267;SDS011;23154;52.542;13.362;2023-07-09T10:00:14;10.82;;;3.60;;
37267;SDS011;23154;52.542;13.362;2023-07-09T10:02:41;11.35;;;3.50;;
37267;SDS011;23154;52.542;13.362;2023-07-09T10:05:14;11.60;;;3.72;;
37267;SDS011;23154;52.542;13.362;2023-07-09T10:07:43;11.98;;;3.70;;
37267;SDS011;23154;52.542;13.362;2023-07-09T10:17:48;12.70;;;3.97;;
37267;SDS011;23154;52.542;13.362;2023-07-09T10:22:57;9.98;;;3.70;;
37267;SDS011;23154;52.542;13.362;2023-07-09T10:27:57;15.38;;;3.55;;
37267;SDS011;23154;52.542;13.362;2023-07-09T10:33:10;11.85;;;3.80;;
37267;SDS011;23154;52.542;13.362;2023-07-09T10:35:38;10.13;;;3.63;;
37267;SDS011;23154;52.542;13.362;2023-07-09T10:38:10;9.13;;;3.20;;
37267;SDS011;23154;52.542;13.362;2023-07-09T10:40:41;13.70;;;3.88;;
37267;SDS011;23154;52.542;13.362;2023-07-09T10:43:17;12.13;;;3.67;;
37267;SDS011;23154;52.542;13.362;2023-07-09T10:45:47;10.20;;;3.17;;
37267;SDS011;23154;52.542;13.362;2023-07-09T10:48:16;12.10;;;3.80;;
37267;SDS011;23154;52.542;13.362;2023-07-09T10:50:51;11.95;;;3.60;;
37267;SDS011;23154;52.542;13.362;2023-07-09T10:55:50;11.55;;;3.70;;
37267;SDS011;23154;52.542;13.362;2023-07-09T10:58:21;13.00;;;4.03;;
37267;SDS011;23154;52.542;13.362;2023-07-09T11:00:48;9.90;;;3.85;;
37267;SDS011;23154;52.542;13.362;2023-07-09T11:05:41;8.98;;;3.22;;
37267;SDS011;23154;52.542;13.362;2023-07-09T11:08:15;11.80;;;3.80;;
37267;SDS011;23154;52.542;13.362;2023-07-09T11:10:50;17.13;;;4.13;;
37267;SDS011;23154;52.542;13.362;2023-07-09T11:15:48;13.00;;;4.03;;
37267;SDS011;23154;52.542;13.362;2023-07-09T11:18:22;11.77;;;3.78;;
37267;SDS011;23154;52.542;13.362;2023-07-09T11:20:54;11.30;;;3.60;;
37267;SDS011;23154;52.542;13.362;2023-07-09T11:23:22;9.80;;;3.30;;
37267;SDS011;23154;52.542;13.362;2023-07-09T11:26:02;11.23;;;3.65;;
37267;SDS011;23154;52.542;13.362;2023-07-09T11:28:33;12.32;;;4.18;;
37267;SDS011;23154;52.542;13.362;2023-07-09T11:31:06;10.80;;;3.55;;
37267;SDS011;23154;52.542;13.362;2023-07-09T11:33:32;14.82;;;3.45;;
37267;SDS011;23154;52.542;13.362;2023-07-09T11:36:09;11.95;;;3.35;;
37267;SDS011;23154;52.542;13.362;2023-07-09T11:38:39;13.23;;;3.75;;
37267;SDS011;23154;52.542;13.362;2023-07-09T11:43:50;10.40;;;3.75;;
37267;SDS011;23154;52.542;13.362;2023-07-09T11:46:24;9.25;;;3.47;;
37267;SDS011;23154;52.542;13.362;2023-07-09T11:48:54;12.70;;;3.80;;
37267;SDS011;23154;52.542;13.362;2023-07-09T11:51:27;13.52;;;4.22;;
37267;SDS011;23154;52.542;13.362;2023-07-09T11:53:55;10.98;;;3.70;;
37267;SDS011;23154;52.542;13.362;2023-07-09T11:56:22;9.32;;;3.33;;
37267;SDS011;23154;52.542;13.362;2023-07-09T11:58:56;16.52;;;4.40;;
37267;SDS011;23154;52.542;13.362;2023-07-09T12:01:23;13.10;;;4.25;;
37267;SDS011;23154;52.542;13.362;2023-07-09T12:03:51;12.10;;;3.80;;
37267;SDS011;23154;52.542;13.362;2023-07-09T12:06:18;11.63;;;3.95;;
37267;SDS011;23154;52.542;13.362;2023-07-09T12:08:45;11.82;;;3.47;;
37267;SDS011;23154;52.542;13.362;2023-07-09T12:11:28;12.80;;;3.78;;
37267;SDS011;23154;52.542;13.362;2023-07-09T12:13:54;13.32;;;3.88;;
37267;SDS011;23154;52.542;13.362;2023-07-09T12:16:31;11.30;;;3.40;;
37267;SDS011;23154;52.542;13.362;2023-07-09T12:18:58;14.73;;;6.93;;
37267;SDS011;23154;52.542;13.362;2023-07-09T12:21:24;19.38;;;6.38;;
37267;SDS011;23154;52.542;13.362;2023-07-09T12:23:51;13.15;;;5.80;;
37267;SDS011;23154;52.542;13.362;2023-07-09T12:26:17;12.02;;;5.22;;
37267;SDS011;23154;52.542;13.362;2023-07-09T12:28:53;14.57;;;5.40;;
37267;SDS011;23154;52.542;13.362;2023-07-09T12:31:28;13.65;;;5.20;;
37267;SDS011;23154;52.542;13.362;2023-07-09T12:33:55;13.50;;;5.32;;
37267;SDS011;23154;52.542;13.362;2023-07-09T12:36:22;12.43;;;4.97;;
37267;SDS011;23154;52.542;13.362;2023-07-09T12:38:49;14.35;;;6.00;;
37267;SDS011;23154;52.542;13.362;2023-07-09T12:41:20;14.63;;;6.57;;
37267;SDS011;23154;52.542;13.362;2023-07-09T12:43:48;14.90;;;7.35;;
37267;SDS011;23154;52.542;13.362;2023-07-09T12:46:14;17.45;;;7.93;;
37267;SDS011;23154;52.542;13.362;2023-07-09T12:48:40;14.98;;;8.23;;
37267;SDS011;23154;52.542;13.362;2023-07-09T12:51:07;15.10;;;7.68;;
37267;SDS011;23154;52.542;13.362;2023-07-09T12:53:33;15.70;;;8.52;;
37267;SDS011;23154;52.542;13.362;2023-07-09T12:56:00;16.67;;;8.77;;
37267;SDS011;23154;52.542;13.362;2023-07-09T12:58:31;16.80;;;7.13;;
37267;SDS011;23154;52.542;13.362;2023-07-09T13:00:58;16.67;;;9.20;;
37267;SDS011;23154;52.542;13.362;2023-07-09T13:03:25;15.75;;;8.50;;
37267;SDS011;23154;52.542;13.362;2023-07-09T13:06:01;17.00;;;8.95;;
37267;SDS011;23154;52.542;13.362;2023-07-09T13:08:30;14.80;;;8.90;;
37267;SDS011;23154;52.542;13.362;2023-07-09T13:10:56;17.38;;;11.10;;
37267;SDS011;23154;52.542;13.362;2023-07-09T13:13:23;16.00;;;10.45;;
37267;SDS011;23154;52.542;13.362;2023-07-09T13:18:21;16.10;;;10.30;;
37267;SDS011;23154;52.542;13.362;2023-07-09T13:20:48;15.75;;;9.73;;
37267;SDS011;23154;52.542;13.362;2023-07-09T13:23:18;19.58;;;10.68;;
37267;SDS011;23154;52.542;13.362;2023-07-09T13:25:45;16.02;;;10.50;;
37267;SDS011;23154;52.542;13.362;2023-07-09T13:28:14;17.30;;;10.55;;
37267;SDS011;23154;52.542;13.362;2023-07-09T13:33:08;18.52;;;10.93;;
37267;SDS011;23154;52.542;13.362;2023-07-09T13:35:35;17.38;;;10.55;;
37267;SDS011;23154;52.542;13.362;2023-07-09T13:38:01;18.42;;;9.77;;
37267;SDS011;23154;52.542;13.362;2023-07-09T13:40:30;18.63;;;10.98;;
37267;SDS011;23154;52.542;13.362;2023-07-09T13:42:56;17.40;;;10.43;;
37267;SDS011;23154;52.542;13.362;2023-07-09T13:45:24;16.80;;;9.90;;
37267;SDS011;23154;52.542;13.362;2023-07-09T13:47:51;17.67;;;10.82;;
37267;SDS011;23154;52.542;13.362;2023-07-09T13:50:17;17.73;;;11.85;;
37267;SDS011;23154;52.542;13.362;2023-07-09T13:52:44;19.63;;;13.18;;
37267;SDS011;23154;52.542;13.362;2023-07-09T13:55:21;17.13;;;12.57;;
37267;SDS011;23154;52.542;13.362;2023-07-09T13:57:48;18.30;;;12.80;;
37267;SDS011;23154;52.542;13.362;2023-07-09T14:00:15;16.05;;;11.18;;
37267;SDS011;23154;52.542;13.362;2023-07-09T14:02:42;17.98;;;12.40;;
37267;SDS011;23154;52.542;13.362;2023-07-09T14:05:08;21.25;;;16.25;;
37267;SDS011;23154;52.542;13.362;2023-07-09T14:07:37;11.85;;;4.03;;
37267;SDS011;23154;52.542;13.362;2023-07-09T14:10:05;15.80;;;4.22;;
37267;SDS011;23154;52.542;13.362;2023-07-09T14:12:31;16.27;;;4.20;;
37267;SDS011;23154;52.542;13.362;2023-07-09T14:14:59;12.10;;;4.22;;
37267;SDS011;23154;52.542;13.362;2023-07-09T14:17:26;14.63;;;4.07;;
37267;SDS011;23154;52.542;13.362;2023-07-09T14:19:52;14.55;;;4.70;;
37267;SDS011;23154;52.542;13.362;2023-07-09T14:24:51;16.75;;;6.70;;
37267;SDS011;23154;52.542;13.362;2023-07-09T14:27:17;14.38;;;6.05;;
37267;SDS011;23154;52.542;13.362;2023-07-09T14:29:44;13.88;;;6.22;;
37267;SDS011;23154;52.542;13.362;2023-07-09T14:32:26;18.25;;;8.70;;
37267;SDS011;23154;52.542;13.362;2023-07-09T14:34:56;20.17;;;15.48;;
37267;SDS011;23154;52.542;13.362;2023-07-09T14:37:22;18.85;;;16.05;;
37267;SDS011;23154;52.542;13.362;2023-07-09T14:39:48;21.08;;;14.65;;
37267;SDS011;23154;52.542;13.362;2023-07-09T14:42:14;19.10;;;15.60;;
37267;SDS011;23154;52.542;13.362;2023-07-09T14:44:41;19.35;;;16.63;;
37267;SDS011;23154;52.542;13.362;2023-07-09T14:47:11;19.15;;;14.88;;
37267;SDS011;23154;52.542;13.362;2023-07-09T14:49:40;18.15;;;14.35;;
37267;SDS011;23154;52.542;13.362;2023-07-09T14:52:25;19.67;;;15.32;;
37267;SDS011;23154;52.542;13.362;2023-07-09T14:54:50;21.20;;;15.30;;
37267;SDS011;23154;52.542;13.362;2023-07-09T14:57:20;17.75;;;14.25;;
37267;SDS011;23154;52.542;13.362;2023-07-09T14:59:48;18.33;;;14.32;;
37267;SDS011;23154;52.542;13.362;2023-07-09T15:04:46;11.40;;;4.25;;
37267;SDS011;23154;52.542;13.362;2023-07-09T15:07:12;12.73;;;4.32;;
37267;SDS011;23154;52.542;13.362;2023-07-09T15:09:39;12.93;;;4.25;;
37267;SDS011;23154;52.542;13.362;2023-07-09T15:12:08;13.13;;;4.28;;
37267;SDS011;23154;52.542;13.362;2023-07-09T15:14:38;13.95;;;4.13;;
37267;SDS011;23154;52.542;13.362;2023-07-09T15:17:04;12.38;;;4.32;;